Las Vegas, Nevada
Current Conditions -  °F | °C
As of 8:56 AM on Thursday 30 Oct 2014 (Local Time) from KLAS Reporting Station
Scattered Clouds Scattered Clouds  
Wind Chill: 19°   Ceiling: Unl
Heat Index: 19°   Visibility: 10mi
Dew Point: -5°   Wind: 5mph
Humidity: 20%   Direction: 200°SSW
Pressure: 30.08"   Gusts: NA
Location:  36.17°N, 115.13°W
Report Text: KLAS 301556Z 20004KT 10SM SCT250 19/M05 A3008 RMK AO2 SLP172 T01891050
Loading
Personal Weather Stations






























Interactive Weather Map
Tropical Storm Tracking
New forecast layout! Learn more

10-Day Weather Forecast

Advertisements
Track Severe Weather on mobile